sensor_id;sensor_type;location;lat;lon;timestamp;temperature;humidity
22629;DHT22;11481;53.694;9.910;2023-10-09T00:02:08;13.10;99.90
22629;DHT22;11481;53.694;9.910;2023-10-09T00:04:39;13.10;99.90
22629;DHT22;11481;53.694;9.910;2023-10-09T00:07:12;13.00;99.90
22629;DHT22;11481;53.694;9.910;2023-10-09T00:09:39;13.00;99.90
22629;DHT22;11481;53.694;9.910;2023-10-09T00:12:18;13.00;99.90
22629;DHT22;11481;53.694;9.910;2023-10-09T00:14:55;13.00;99.90
22629;DHT22;11481;53.694;9.910;2023-10-09T00:17:35;13.00;99.90
22629;DHT22;11481;53.694;9.910;2023-10-09T00:20:05;12.90;99.90
22629;DHT22;11481;53.694;9.910;2023-10-09T00:22:35;12.90;99.90
22629;DHT22;11481;53.694;9.910;2023-10-09T00:25:08;12.90;99.90
22629;DHT22;11481;53.694;9.910;2023-10-09T00:27:39;12.90;99.90
22629;DHT22;11481;53.694;9.910;2023-10-09T00:30:11;12.80;99.90
22629;DHT22;11481;53.694;9.910;2023-10-09T00:32:42;12.80;99.90
22629;DHT22;11481;53.694;9.910;2023-10-09T00:35:17;12.90;99.90
22629;DHT22;11481;53.694;9.910;2023-10-09T00:38:06;12.80;99.90
22629;DHT22;11481;53.694;9.910;2023-10-09T00:40:49;12.80;99.90
22629;DHT22;11481;53.694;9.910;2023-10-09T00:43:29;12.80;99.90
22629;DHT22;11481;53.694;9.910;2023-10-09T00:45:59;12.70;99.90
22629;DHT22;11481;53.694;9.910;2023-10-09T00:48:30;12.70;99.90
22629;DHT22;11481;53.694;9.910;2023-10-09T00:51:00;12.70;99.90
22629;DHT22;11481;53.694;9.910;2023-10-09T00:53:27;12.70;99.90
22629;DHT22;11481;53.694;9.910;2023-10-09T00:56:04;12.70;99.90
22629;DHT22;11481;53.694;9.910;2023-10-09T00:58:59;12.70;99.90
22629;DHT22;11481;53.694;9.910;2023-10-09T01:01:33;12.70;99.90
22629;DHT22;11481;53.694;9.910;2023-10-09T01:04:07;12.70;99.90
22629;DHT22;11481;53.694;9.910;2023-10-09T01:06:42;12.60;99.90
22629;DHT22;11481;53.694;9.910;2023-10-09T01:09:16;12.70;99.90
22629;DHT22;11481;53.694;9.910;2023-10-09T01:11:49;12.60;99.90
22629;DHT22;11481;53.694;9.910;2023-10-09T01:14:31;12.60;99.90
22629;DHT22;11481;53.694;9.910;2023-10-09T01:17:04;12.60;99.90
22629;DHT22;11481;53.694;9.910;2023-10-09T01:19:38;12.60;99.90
22629;DHT22;11481;53.694;9.910;2023-10-09T01:22:05;12.50;99.90
22629;DHT22;11481;53.694;9.910;2023-10-09T01:24:40;12.50;99.90
22629;DHT22;11481;53.694;9.910;2023-10-09T01:27:07;12.50;99.90
22629;DHT22;11481;53.694;9.910;2023-10-09T01:29:42;12.50;99.90
22629;DHT22;11481;53.694;9.910;2023-10-09T01:32:10;12.50;99.90
22629;DHT22;11481;53.694;9.910;2023-10-09T01:34:44;12.50;99.90
22629;DHT22;11481;53.694;9.910;2023-10-09T01:37:21;12.50;99.90
22629;DHT22;11481;53.694;9.910;2023-10-09T01:39:58;12.50;99.90
22629;DHT22;11481;53.694;9.910;2023-10-09T01:42:27;12.50;99.90
22629;DHT22;11481;53.694;9.910;2023-10-09T01:44:56;12.50;99.90
22629;DHT22;11481;53.694;9.910;2023-10-09T01:47:25;12.50;99.90
22629;DHT22;11481;53.694;9.910;2023-10-09T01:49:58;12.50;99.90
22629;DHT22;11481;53.694;9.910;2023-10-09T01:52:25;12.50;99.90
22629;DHT22;11481;53.694;9.910;2023-10-09T01:54:52;12.50;99.90
22629;DHT22;11481;53.694;9.910;2023-10-09T01:57:20;12.50;99.90
22629;DHT22;11481;53.694;9.910;2023-10-09T01:59:51;12.50;99.90
22629;DHT22;11481;53.694;9.910;2023-10-09T02:02:20;12.50;99.90
22629;DHT22;11481;53.694;9.910;2023-10-09T02:05:02;12.60;99.90
22629;DHT22;11481;53.694;9.910;2023-10-09T02:07:52;12.50;99.90
22629;DHT22;11481;53.694;9.910;2023-10-09T02:10:21;12.50;99.90
22629;DHT22;11481;53.694;9.910;2023-10-09T02:12:53;12.50;99.90
22629;DHT22;11481;53.694;9.910;2023-10-09T02:15:27;12.50;99.90
22629;DHT22;11481;53.694;9.910;2023-10-09T02:18:15;12.50;99.90
22629;DHT22;11481;53.694;9.910;2023-10-09T02:20:46;12.40;99.90
22629;DHT22;11481;53.694;9.910;2023-10-09T02:23:14;12.40;99.90
22629;DHT22;11481;53.694;9.910;2023-10-09T02:25:47;12.40;99.90
22629;DHT22;11481;53.694;9.910;2023-10-09T02:28:19;12.30;99.90
22629;DHT22;11481;53.694;9.910;2023-10-09T02:30:46;12.30;99.90
22629;DHT22;11481;53.694;9.910;2023-10-09T02:33:18;12.30;99.90
22629;DHT22;11481;53.694;9.910;2023-10-09T02:35:47;12.30;99.90
22629;DHT22;11481;53.694;9.910;2023-10-09T02:38:17;12.30;99.90
22629;DHT22;11481;53.694;9.910;2023-10-09T02:40:52;12.20;99.90
22629;DHT22;11481;53.694;9.910;2023-10-09T02:43:33;12.20;99.90
22629;DHT22;11481;53.694;9.910;2023-10-09T02:46:18;12.20;99.90
22629;DHT22;11481;53.694;9.910;2023-10-09T02:48:49;12.30;99.90
22629;DHT22;11481;53.694;9.910;2023-10-09T02:51:24;12.20;99.90
22629;DHT22;11481;53.694;9.910;2023-10-09T02:53:58;12.20;99.90
22629;DHT22;11481;53.694;9.910;2023-10-09T02:56:25;12.20;99.90
22629;DHT22;11481;53.694;9.910;2023-10-09T02:59:05;12.20;99.90
22629;DHT22;11481;53.694;9.910;2023-10-09T03:01:36;12.10;99.90
22629;DHT22;11481;53.694;9.910;2023-10-09T03:04:04;12.10;99.90
22629;DHT22;11481;53.694;9.910;2023-10-09T03:06:33;12.10;99.90
22629;DHT22;11481;53.694;9.910;2023-10-09T03:09:04;12.10;99.90
22629;DHT22;11481;53.694;9.910;2023-10-09T03:11:47;12.10;99.90
22629;DHT22;11481;53.694;9.910;2023-10-09T03:14:21;12.10;99.90
22629;DHT22;11481;53.694;9.910;2023-10-09T03:16:48;12.10;99.90
22629;DHT22;11481;53.694;9.910;2023-10-09T03:19:16;12.00;99.90
22629;DHT22;11481;53.694;9.910;2023-10-09T03:21:43;12.00;99.90
22629;DHT22;11481;53.694;9.910;2023-10-09T03:24:10;12.00;99.90
22629;DHT22;11481;53.694;9.910;2023-10-09T03:26:38;12.00;99.90
22629;DHT22;11481;53.694;9.910;2023-10-09T03:29:05;11.90;99.90
22629;DHT22;11481;53.694;9.910;2023-10-09T03:31:37;12.00;99.90
22629;DHT22;11481;53.694;9.910;2023-10-09T03:34:05;11.90;99.90
22629;DHT22;11481;53.694;9.910;2023-10-09T03:36:33;11.90;99.90
22629;DHT22;11481;53.694;9.910;2023-10-09T03:39:05;11.90;99.90
22629;DHT22;11481;53.694;9.910;2023-10-09T03:41:56;11.80;99.90
22629;DHT22;11481;53.694;9.910;2023-10-09T03:44:25;11.80;99.90
22629;DHT22;11481;53.694;9.910;2023-10-09T03:46:55;11.80;99.90
22629;DHT22;11481;53.694;9.910;2023-10-09T03:49:23;11.70;99.90
22629;DHT22;11481;53.694;9.910;2023-10-09T03:51:52;11.80;99.90
22629;DHT22;11481;53.694;9.910;2023-10-09T03:54:19;11.70;99.90
22629;DHT22;11481;53.694;9.910;2023-10-09T03:56:50;11.70;99.90
22629;DHT22;11481;53.694;9.910;2023-10-09T03:59:18;11.70;99.90
22629;DHT22;11481;53.694;9.910;2023-10-09T04:01:47;11.70;99.90
22629;DHT22;11481;53.694;9.910;2023-10-09T04:04:16;11.70;99.90
22629;DHT22;11481;53.694;9.910;2023-10-09T04:06:44;11.60;99.90
22629;DHT22;11481;53.694;9.910;2023-10-09T04:09:13;11.60;99.90
22629;DHT22;11481;53.694;9.910;2023-10-09T04:11:53;11.60;99.90
22629;DHT22;11481;53.694;9.910;2023-10-09T04:14:36;11.60;99.90
22629;DHT22;11481;53.694;9.910;2023-10-09T04:17:14;11.50;99.90
22629;DHT22;11481;53.694;9.910;2023-10-09T04:19:49;11.60;99.90
22629;DHT22;11481;53.694;9.910;2023-10-09T04:22:40;11.50;99.90
22629;DHT22;11481;53.694;9.910;2023-10-09T04:25:20;11.60;99.90
22629;DHT22;11481;53.694;9.910;2023-10-09T04:27:59;11.60;99.90
22629;DHT22;11481;53.694;9.910;2023-10-09T04:30:42;11.60;99.90
22629;DHT22;11481;53.694;9.910;2023-10-09T04:33:13;11.60;99.90
22629;DHT22;11481;53.694;9.910;2023-10-09T04:36:10;11.60;99.90
22629;DHT22;11481;53.694;9.910;2023-10-09T04:38:52;11.50;99.90
22629;DHT22;11481;53.694;9.910;2023-10-09T04:41:31;11.60;99.90
22629;DHT22;11481;53.694;9.910;2023-10-09T04:44:19;11.50;99.90
22629;DHT22;11481;53.694;9.910;2023-10-09T04:46:47;11.60;99.90
22629;DHT22;11481;53.694;9.910;2023-10-09T04:49:33;11.60;99.90
22629;DHT22;11481;53.694;9.910;2023-10-09T04:52:16;11.60;99.90
22629;DHT22;11481;53.694;9.910;2023-10-09T04:54:52;11.60;99.90
22629;DHT22;11481;53.694;9.910;2023-10-09T04:57:38;11.70;99.90
22629;DHT22;11481;53.694;9.910;2023-10-09T05:03:02;11.70;99.90
22629;DHT22;11481;53.694;9.910;2023-10-09T05:05:47;11.70;99.90
22629;DHT22;11481;53.694;9.910;2023-10-09T05:08:17;11.60;99.90
22629;DHT22;11481;53.694;9.910;2023-10-09T05:10:58;11.70;99.90
22629;DHT22;11481;53.694;9.910;2023-10-09T05:13:27;11.70;99.90
22629;DHT22;11481;53.694;9.910;2023-10-09T05:16:14;11.70;99.90
22629;DHT22;11481;53.694;9.910;2023-10-09T05:19:00;11.60;99.90
22629;DHT22;11481;53.694;9.910;2023-10-09T05:21:33;11.50;99.90
22629;DHT22;11481;53.694;9.910;2023-10-09T05:24:01;11.50;99.90
22629;DHT22;11481;53.694;9.910;2023-10-09T05:26:49;11.50;99.90
22629;DHT22;11481;53.694;9.910;2023-10-09T05:29:26;11.50;99.90
22629;DHT22;11481;53.694;9.910;2023-10-09T05:31:55;11.50;99.90
22629;DHT22;11481;53.694;9.910;2023-10-09T05:34:24;11.60;99.90
22629;DHT22;11481;53.694;9.910;2023-10-09T05:37:01;11.60;99.90
22629;DHT22;11481;53.694;9.910;2023-10-09T05:39:45;11.50;99.90
22629;DHT22;11481;53.694;9.910;2023-10-09T05:42:35;11.50;99.90
22629;DHT22;11481;53.694;9.910;2023-10-09T05:45:13;11.50;99.90
22629;DHT22;11481;53.694;9.910;2023-10-09T05:47:58;11.50;99.90
22629;DHT22;11481;53.694;9.910;2023-10-09T05:50:41;11.40;99.90
22629;DHT22;11481;53.694;9.910;2023-10-09T05:53:26;11.40;99.90
22629;DHT22;11481;53.694;9.910;2023-10-09T05:56:13;11.40;99.90
22629;DHT22;11481;53.694;9.910;2023-10-09T05:58:58;11.40;99.90
22629;DHT22;11481;53.694;9.910;2023-10-09T06:01:43;11.40;99.90
22629;DHT22;11481;53.694;9.910;2023-10-09T06:04:25;11.40;99.90
22629;DHT22;11481;53.694;9.910;2023-10-09T06:07:25;11.40;99.90
22629;DHT22;11481;53.694;9.910;2023-10-09T06:10:08;11.30;99.90
22629;DHT22;11481;53.694;9.910;2023-10-09T06:12:45;11.40;99.90
22629;DHT22;11481;53.694;9.910;2023-10-09T06:15:16;11.30;99.90
22629;DHT22;11481;53.694;9.910;2023-10-09T06:17:58;11.30;99.90
22629;DHT22;11481;53.694;9.910;2023-10-09T06:20:45;11.30;99.90
22629;DHT22;11481;53.694;9.910;2023-10-09T06:23:30;11.20;99.90
22629;DHT22;11481;53.694;9.910;2023-10-09T06:26:15;11.20;99.90
22629;DHT22;11481;53.694;9.910;2023-10-09T06:28:52;11.20;99.90
22629;DHT22;11481;53.694;9.910;2023-10-09T06:31:39;11.20;99.90
22629;DHT22;11481;53.694;9.910;2023-10-09T06:34:35;11.20;99.90
22629;DHT22;11481;53.694;9.910;2023-10-09T06:37:02;11.30;99.90
22629;DHT22;11481;53.694;9.910;2023-10-09T06:40:01;11.30;99.90
22629;DHT22;11481;53.694;9.910;2023-10-09T06:42:46;11.30;99.90
22629;DHT22;11481;53.694;9.910;2023-10-09T06:45:17;11.20;99.90
22629;DHT22;11481;53.694;9.910;2023-10-09T06:47:49;11.20;99.90
22629;DHT22;11481;53.694;9.910;2023-10-09T06:50:36;11.20;99.90
22629;DHT22;11481;53.694;9.910;2023-10-09T06:53:21;11.30;99.90
22629;DHT22;11481;53.694;9.910;2023-10-09T06:55:54;11.30;99.90
22629;DHT22;11481;53.694;9.910;2023-10-09T06:58:34;11.30;99.90
22629;DHT22;11481;53.694;9.910;2023-10-09T07:01:14;11.30;99.90
22629;DHT22;11481;53.694;9.910;2023-10-09T07:03:51;11.40;99.90
22629;DHT22;11481;53.694;9.910;2023-10-09T07:06:21;11.30;99.90
22629;DHT22;11481;53.694;9.910;2023-10-09T07:08:56;11.40;99.90
22629;DHT22;11481;53.694;9.910;2023-10-09T07:11:35;11.40;99.90
22629;DHT22;11481;53.694;9.910;2023-10-09T07:17:07;11.30;99.90
22629;DHT22;11481;53.694;9.910;2023-10-09T07:19:50;11.30;99.90
22629;DHT22;11481;53.694;9.910;2023-10-09T07:22:17;11.30;99.90
22629;DHT22;11481;53.694;9.910;2023-10-09T07:24:47;11.20;99.90
22629;DHT22;11481;53.694;9.910;2023-10-09T07:27:24;11.30;99.90
22629;DHT22;11481;53.694;9.910;2023-10-09T07:30:12;11.30;99.90
22629;DHT22;11481;53.694;9.910;2023-10-09T07:32:59;11.30;99.90
22629;DHT22;11481;53.694;9.910;2023-10-09T07:35:44;11.30;99.90
22629;DHT22;11481;53.694;9.910;2023-10-09T07:38:13;11.30;99.90
22629;DHT22;11481;53.694;9.910;2023-10-09T07:40:41;11.30;99.90
22629;DHT22;11481;53.694;9.910;2023-10-09T07:43:46;11.30;99.90
22629;DHT22;11481;53.694;9.910;2023-10-09T07:46:15;11.30;99.90
22629;DHT22;11481;53.694;9.910;2023-10-09T07:49:18;11.30;99.90
22629;DHT22;11481;53.694;9.910;2023-10-09T07:51:52;11.40;99.90
22629;DHT22;11481;53.694;9.910;2023-10-09T07:54:22;11.40;99.90
22629;DHT22;11481;53.694;9.910;2023-10-09T07:57:02;11.40;99.90
22629;DHT22;11481;53.694;9.910;2023-10-09T07:59:35;11.40;99.90
22629;DHT22;11481;53.694;9.910;2023-10-09T08:02:07;11.40;99.90
22629;DHT22;11481;53.694;9.910;2023-10-09T08:04:40;11.50;99.90
22629;DHT22;11481;53.694;9.910;2023-10-09T08:07:16;11.50;99.90
22629;DHT22;11481;53.694;9.910;2023-10-09T08:10:07;11.50;99.90
22629;DHT22;11481;53.694;9.910;2023-10-09T08:12:41;11.60;99.90
22629;DHT22;11481;53.694;9.910;2023-10-09T08:15:11;11.50;99.90
22629;DHT22;11481;53.694;9.910;2023-10-09T08:17:50;11.60;99.90
22629;DHT22;11481;53.694;9.910;2023-10-09T08:20:24;11.60;99.90
22629;DHT22;11481;53.694;9.910;2023-10-09T08:22:55;11.70;99.90
22629;DHT22;11481;53.694;9.910;2023-10-09T08:25:26;11.70;99.90
22629;DHT22;11481;53.694;9.910;2023-10-09T08:27:56;11.60;99.90
22629;DHT22;11481;53.694;9.910;2023-10-09T08:30:25;11.70;99.90
22629;DHT22;11481;53.694;9.910;2023-10-09T08:32:52;11.70;99.90
22629;DHT22;11481;53.694;9.910;2023-10-09T08:35:54;11.80;99.90
22629;DHT22;11481;53.694;9.910;2023-10-09T08:38:28;11.80;99.90
22629;DHT22;11481;53.694;9.910;2023-10-09T08:41:07;11.80;99.90
22629;DHT22;11481;53.694;9.910;2023-10-09T08:43:37;11.80;99.90
22629;DHT22;11481;53.694;9.910;2023-10-09T08:46:06;11.80;99.90
22629;DHT22;11481;53.694;9.910;2023-10-09T08:48:34;11.90;99.90
22629;DHT22;11481;53.694;9.910;2023-10-09T08:51:04;11.90;99.90
22629;DHT22;11481;53.694;9.910;2023-10-09T08:53:33;11.90;99.90
22629;DHT22;11481;53.694;9.910;2023-10-09T08:55:59;12.00;99.90
22629;DHT22;11481;53.694;9.910;2023-10-09T08:58:26;12.00;99.90
22629;DHT22;11481;53.694;9.910;2023-10-09T09:00:57;12.10;99.90
22629;DHT22;11481;53.694;9.910;2023-10-09T09:03:25;12.10;99.90
22629;DHT22;11481;53.694;9.910;2023-10-09T09:06:00;12.10;99.90
22629;DHT22;11481;53.694;9.910;2023-10-09T09:08:32;12.10;99.90
22629;DHT22;11481;53.694;9.910;2023-10-09T09:11:01;12.10;99.90
22629;DHT22;11481;53.694;9.910;2023-10-09T09:13:45;12.10;99.90
22629;DHT22;11481;53.694;9.910;2023-10-09T09:16:20;12.10;99.90
22629;DHT22;11481;53.694;9.910;2023-10-09T09:19:06;12.10;99.90
22629;DHT22;11481;53.694;9.910;2023-10-09T09:21:41;12.10;99.90
22629;DHT22;11481;53.694;9.910;2023-10-09T09:24:11;12.20;99.90
22629;DHT22;11481;53.694;9.910;2023-10-09T09:26:52;12.20;99.90
22629;DHT22;11481;53.694;9.910;2023-10-09T09:32:06;12.10;99.90
22629;DHT22;11481;53.694;9.910;2023-10-09T09:34:54;12.20;99.90
22629;DHT22;11481;53.694;9.910;2023-10-09T09:37:31;12.30;99.90
22629;DHT22;11481;53.694;9.910;2023-10-09T09:40:18;12.20;99.90
22629;DHT22;11481;53.694;9.910;2023-10-09T09:43:01;12.30;99.90
22629;DHT22;11481;53.694;9.910;2023-10-09T09:45:39;12.30;99.90
22629;DHT22;11481;53.694;9.910;2023-10-09T09:48:16;12.40;99.90
22629;DHT22;11481;53.694;9.910;2023-10-09T09:50:43;12.40;99.90
22629;DHT22;11481;53.694;9.910;2023-10-09T09:53:13;12.40;99.90
22629;DHT22;11481;53.694;9.910;2023-10-09T09:55:54;12.40;99.90
22629;DHT22;11481;53.694;9.910;2023-10-09T09:58:25;12.40;99.90
22629;DHT22;11481;53.694;9.910;2023-10-09T10:01:03;12.40;99.90
22629;DHT22;11481;53.694;9.910;2023-10-09T10:03:44;12.60;99.90
22629;DHT22;11481;53.694;9.910;2023-10-09T10:06:13;12.40;99.90
22629;DHT22;11481;53.694;9.910;2023-10-09T10:08:44;12.50;99.90
22629;DHT22;11481;53.694;9.910;2023-10-09T10:11:43;12.50;99.90
22629;DHT22;11481;53.694;9.910;2023-10-09T10:14:13;12.50;99.90
22629;DHT22;11481;53.694;9.910;2023-10-09T10:17:08;12.60;99.90
22629;DHT22;11481;53.694;9.910;2023-10-09T10:22:28;12.60;99.90
22629;DHT22;11481;53.694;9.910;2023-10-09T10:24:57;12.60;99.90
22629;DHT22;11481;53.694;9.910;2023-10-09T10:27:26;12.70;99.90
22629;DHT22;11481;53.694;9.910;2023-10-09T10:33:07;12.60;99.90
22629;DHT22;11481;53.694;9.910;2023-10-09T10:35:38;12.70;99.90
22629;DHT22;11481;53.694;9.910;2023-10-09T10:38:29;12.60;99.90
22629;DHT22;11481;53.694;9.910;2023-10-09T10:41:17;12.60;99.90
22629;DHT22;11481;53.694;9.910;2023-10-09T10:43:45;12.60;99.90
22629;DHT22;11481;53.694;9.910;2023-10-09T10:46:23;12.70;99.90
22629;DHT22;11481;53.694;9.910;2023-10-09T10:48:51;12.60;99.90
22629;DHT22;11481;53.694;9.910;2023-10-09T10:51:27;12.60;99.90
22629;DHT22;11481;53.694;9.910;2023-10-09T10:54:05;12.70;99.90
22629;DHT22;11481;53.694;9.910;2023-10-09T10:56:51;12.60;99.90
22629;DHT22;11481;53.694;9.910;2023-10-09T10:59:19;12.70;99.90
22629;DHT22;11481;53.694;9.910;2023-10-09T11:01:56;12.60;99.90
22629;DHT22;11481;53.694;9.910;2023-10-09T11:04:27;12.70;99.90
22629;DHT22;11481;53.694;9.910;2023-10-09T11:06:58;12.70;99.90
22629;DHT22;11481;53.694;9.910;2023-10-09T11:09:52;12.70;99.90
22629;DHT22;11481;53.694;9.910;2023-10-09T11:15:12;12.80;99.90
22629;DHT22;11481;53.694;9.910;2023-10-09T11:18:05;12.80;99.90
22629;DHT22;11481;53.694;9.910;2023-10-09T11:20:44;12.90;99.90
22629;DHT22;11481;53.694;9.910;2023-10-09T11:23:33;12.90;99.90
22629;DHT22;11481;53.694;9.910;2023-10-09T11:26:02;12.90;99.90
22629;DHT22;11481;53.694;9.910;2023-10-09T11:29:09;12.90;99.90
22629;DHT22;11481;53.694;9.910;2023-10-09T11:32:06;12.90;99.90
22629;DHT22;11481;53.694;9.910;2023-10-09T11:34:34;12.90;99.90
22629;DHT22;11481;53.694;9.910;2023-10-09T11:39:38;12.90;99.90
22629;DHT22;11481;53.694;9.910;2023-10-09T11:42:20;13.00;99.90
22629;DHT22;11481;53.694;9.910;2023-10-09T11:45:06;13.00;99.90
22629;DHT22;11481;53.694;9.910;2023-10-09T11:47:47;13.10;99.90
22629;DHT22;11481;53.694;9.910;2023-10-09T11:50:51;13.10;99.90
22629;DHT22;11481;53.694;9.910;2023-10-09T11:53:43;13.20;99.90
22629;DHT22;11481;53.694;9.910;2023-10-09T11:56:12;13.30;99.90
22629;DHT22;11481;53.694;9.910;2023-10-09T11:58:46;13.30;99.90
22629;DHT22;11481;53.694;9.910;2023-10-09T12:01:13;13.40;99.90
22629;DHT22;11481;53.694;9.910;2023-10-09T12:03:47;13.40;99.90
22629;DHT22;11481;53.694;9.910;2023-10-09T12:06:20;13.50;99.90
22629;DHT22;11481;53.694;9.910;2023-10-09T12:08:49;13.40;99.90
22629;DHT22;11481;53.694;9.910;2023-10-09T12:11:16;13.40;99.90
22629;DHT22;11481;53.694;9.910;2023-10-09T12:13:50;13.50;99.90
22629;DHT22;11481;53.694;9.910;2023-10-09T12:16:23;13.50;99.90
22629;DHT22;11481;53.694;9.910;2023-10-09T12:18:55;13.50;99.90
22629;DHT22;11481;53.694;9.910;2023-10-09T12:21:22;13.50;99.90
22629;DHT22;11481;53.694;9.910;2023-10-09T12:23:50;13.50;99.90
22629;DHT22;11481;53.694;9.910;2023-10-09T12:26:16;13.60;99.90
22629;DHT22;11481;53.694;9.910;2023-10-09T12:28:44;13.60;99.90
22629;DHT22;11481;53.694;9.910;2023-10-09T12:31:16;13.60;99.90
22629;DHT22;11481;53.694;9.910;2023-10-09T12:33:46;13.60;99.90
22629;DHT22;11481;53.694;9.910;2023-10-09T12:36:14;13.60;99.90
22629;DHT22;11481;53.694;9.910;2023-10-09T12:38:48;13.70;99.90
22629;DHT22;11481;53.694;9.910;2023-10-09T12:41:20;13.70;99.90
22629;DHT22;11481;53.694;9.910;2023-10-09T12:43:54;13.70;99.90
22629;DHT22;11481;53.694;9.910;2023-10-09T12:46:21;13.80;99.90
22629;DHT22;11481;53.694;9.910;2023-10-09T12:48:52;13.80;99.90
22629;DHT22;11481;53.694;9.910;2023-10-09T12:51:22;13.90;99.90
22629;DHT22;11481;53.694;9.910;2023-10-09T12:53:52;13.90;99.90
22629;DHT22;11481;53.694;9.910;2023-10-09T12:56:26;13.90;99.90
22629;DHT22;11481;53.694;9.910;2023-10-09T12:58:59;14.00;99.90
22629;DHT22;11481;53.694;9.910;2023-10-09T13:01:28;14.10;99.90
22629;DHT22;11481;53.694;9.910;2023-10-09T13:04:11;14.10;99.90
22629;DHT22;11481;53.694;9.910;2023-10-09T13:06:44;14.10;99.90
22629;DHT22;11481;53.694;9.910;2023-10-09T13:09:12;14.20;99.90
22629;DHT22;11481;53.694;9.910;2023-10-09T13:11:40;14.20;99.90
22629;DHT22;11481;53.694;9.910;2023-10-09T13:14:07;14.30;99.90
22629;DHT22;11481;53.694;9.910;2023-10-09T13:16:44;14.30;99.90
22629;DHT22;11481;53.694;9.910;2023-10-09T13:19:11;14.30;99.90
22629;DHT22;11481;53.694;9.910;2023-10-09T13:21:38;14.30;99.90
22629;DHT22;11481;53.694;9.910;2023-10-09T13:24:09;14.30;99.90
22629;DHT22;11481;53.694;9.910;2023-10-09T13:26:50;14.40;99.90
22629;DHT22;11481;53.694;9.910;2023-10-09T13:29:24;14.40;99.90
22629;DHT22;11481;53.694;9.910;2023-10-09T13:31:52;14.40;99.90
22629;DHT22;11481;53.694;9.910;2023-10-09T13:34:29;14.40;99.90
22629;DHT22;11481;53.694;9.910;2023-10-09T13:36:56;14.40;99.90
22629;DHT22;11481;53.694;9.910;2023-10-09T13:39:26;14.50;99.90
22629;DHT22;11481;53.694;9.910;2023-10-09T13:41:55;14.50;99.90
22629;DHT22;11481;53.694;9.910;2023-10-09T13:44:30;14.50;99.90
22629;DHT22;11481;53.694;9.910;2023-10-09T13:47:02;14.60;99.90
22629;DHT22;11481;53.694;9.910;2023-10-09T13:49:32;14.60;99.90
22629;DHT22;11481;53.694;9.910;2023-10-09T13:52:00;14.70;99.90
22629;DHT22;11481;53.694;9.910;2023-10-09T13:54:29;14.70;99.90
22629;DHT22;11481;53.694;9.910;2023-10-09T13:56:59;14.80;99.90
22629;DHT22;11481;53.694;9.910;2023-10-09T13:59:26;14.80;99.90
22629;DHT22;11481;53.694;9.910;2023-10-09T14:01:54;14.80;99.90
22629;DHT22;11481;53.694;9.910;2023-10-09T14:04:26;14.80;99.90
22629;DHT22;11481;53.694;9.910;2023-10-09T14:06:52;14.80;99.90
22629;DHT22;11481;53.694;9.910;2023-10-09T14:09:32;14.80;99.90
22629;DHT22;11481;53.694;9.910;2023-10-09T14:12:05;14.80;99.90
22629;DHT22;11481;53.694;9.910;2023-10-09T14:14:44;14.80;99.90
22629;DHT22;11481;53.694;9.910;2023-10-09T14:19:42;14.90;99.90
22629;DHT22;11481;53.694;9.910;2023-10-09T14:22:15;14.90;99.90
22629;DHT22;11481;53.694;9.910;2023-10-09T14:24:45;15.00;99.90
22629;DHT22;11481;53.694;9.910;2023-10-09T14:27:16;14.90;99.90
22629;DHT22;11481;53.694;9.910;2023-10-09T14:29:49;14.90;99.90
22629;DHT22;11481;53.694;9.910;2023-10-09T14:32:16;15.00;99.90
22629;DHT22;11481;53.694;9.910;2023-10-09T14:34:44;15.00;99.90
22629;DHT22;11481;53.694;9.910;2023-10-09T14:37:17;15.00;99.90
22629;DHT22;11481;53.694;9.910;2023-10-09T14:39:46;15.00;99.90
22629;DHT22;11481;53.694;9.910;2023-10-09T14:42:15;15.00;99.90
22629;DHT22;11481;53.694;9.910;2023-10-09T14:44:42;15.00;99.90
22629;DHT22;11481;53.694;9.910;2023-10-09T14:47:11;15.00;99.90
22629;DHT22;11481;53.694;9.910;2023-10-09T14:49:41;15.00;99.90
22629;DHT22;11481;53.694;9.910;2023-10-09T14:52:10;15.00;99.90
22629;DHT22;11481;53.694;9.910;2023-10-09T14:54:37;15.00;99.90
22629;DHT22;11481;53.694;9.910;2023-10-09T14:57:07;15.10;99.90
22629;DHT22;11481;53.694;9.910;2023-10-09T14:59:34;15.10;99.90
22629;DHT22;11481;53.694;9.910;2023-10-09T15:02:01;15.10;99.90
22629;DHT22;11481;53.694;9.910;2023-10-09T15:04:28;15.10;99.90
22629;DHT22;11481;53.694;9.910;2023-10-09T15:06:54;15.10;99.90
22629;DHT22;11481;53.694;9.910;2023-10-09T15:09:21;15.10;99.90
22629;DHT22;11481;53.694;9.910;2023-10-09T15:11:49;15.10;99.90
22629;DHT22;11481;53.694;9.910;2023-10-09T15:14:16;15.10;99.90
22629;DHT22;11481;53.694;9.910;2023-10-09T15:16:45;15.10;99.90
22629;DHT22;11481;53.694;9.910;2023-10-09T15:19:13;15.20;99.90
22629;DHT22;11481;53.694;9.910;2023-10-09T15:21:40;15.10;99.90
22629;DHT22;11481;53.694;9.910;2023-10-09T15:24:16;15.10;99.90
22629;DHT22;11481;53.694;9.910;2023-10-09T15:26:46;15.20;99.90
22629;DHT22;11481;53.694;9.910;2023-10-09T15:29:19;15.20;99.90
22629;DHT22;11481;53.694;9.910;2023-10-09T15:31:50;15.10;99.90
22629;DHT22;11481;53.694;9.910;2023-10-09T15:34:17;15.20;99.90
22629;DHT22;11481;53.694;9.910;2023-10-09T15:36:45;15.20;99.90
22629;DHT22;11481;53.694;9.910;2023-10-09T15:39:14;15.20;99.90
22629;DHT22;11481;53.694;9.910;2023-10-09T15:41:46;15.20;99.90
22629;DHT22;11481;53.694;9.910;2023-10-09T15:44:13;15.20;99.90
22629;DHT22;11481;53.694;9.910;2023-10-09T15:46:40;15.20;99.90
22629;DHT22;11481;53.694;9.910;2023-10-09T15:49:10;15.20;99.90
22629;DHT22;11481;53.694;9.910;2023-10-09T15:51:38;15.20;99.90
22629;DHT22;11481;53.694;9.910;2023-10-09T15:54:05;15.20;99.90
22629;DHT22;11481;53.694;9.910;2023-10-09T15:56:32;15.20;99.90
22629;DHT22;11481;53.694;9.910;2023-10-09T15:59:01;15.20;99.90
22629;DHT22;11481;53.694;9.910;2023-10-09T16:01:27;15.20;99.90
22629;DHT22;11481;53.694;9.910;2023-10-09T16:03:54;15.20;99.90
22629;DHT22;11481;53.694;9.910;2023-10-09T16:06:22;15.20;99.90
22629;DHT22;11481;53.694;9.910;2023-10-09T16:08:53;15.20;99.90
22629;DHT22;11481;53.694;9.910;2023-10-09T16:11:21;15.20;99.90
22629;DHT22;11481;53.694;9.910;2023-10-09T16:13:52;15.20;99.90
22629;DHT22;11481;53.694;9.910;2023-10-09T16:16:30;15.20;99.90
22629;DHT22;11481;53.694;9.910;2023-10-09T16:18:57;15.30;99.90
22629;DHT22;11481;53.694;9.910;2023-10-09T16:21:26;15.20;99.90
22629;DHT22;11481;53.694;9.910;2023-10-09T16:23:53;15.20;99.90
22629;DHT22;11481;53.694;9.910;2023-10-09T16:26:25;15.30;99.90
22629;DHT22;11481;53.694;9.910;2023-10-09T16:28:53;15.20;99.90
22629;DHT22;11481;53.694;9.910;2023-10-09T16:31:20;15.20;99.90
22629;DHT22;11481;53.694;9.910;2023-10-09T16:33:46;15.20;99.90
22629;DHT22;11481;53.694;9.910;2023-10-09T16:36:17;15.20;99.90
22629;DHT22;11481;53.694;9.910;2023-10-09T16:38:43;15.30;99.90